Wingdale, New York
Current Conditions -  °F | °C
As of 5:53 PM on Thursday 25 Dec 2014 (Local Time) from KPOU Reporting Station
Overcast Overcast  
Wind Chill: 43°   Ceiling: 5500
Heat Index: 49°   Visibility: 10mi
Dew Point: 27°   Wind: 16mph
Humidity: 43%   Direction: 250°WSW
Pressure: 29.94"   Gusts: 26mph
Location:  41.65°N, 73.57°W
Report Text: KPOU 252253Z AUTO 25014G23KT 10SM OVC055 09/M03 A2994 RMK AO2 SLP135 T00941028 TSNO
Loading
Personal Weather Stations






























Interactive Weather Map New forecast layout! Learn more

10-Day Weather Forecast

Advertisements
Track Severe Weather on mobile